Time;durP1;ratioP1;P1;durP2;ratioP2;P2;SDS_P1;SDS_P2;PMS_P1;PMS_P2;Temp;Humidity;BMP_temperature;BMP_pressure;BME280_temperature;BME280_humidity;BME280_pressure;Samples;Min_cycle;Max_cycle;Signal;HPM_P1;HPM_P2
2023/12/12 00:01:52;;;;;;;1.75;0.30;;;8.50;99.90;;;;;;5072862;28;20040;-80
2023/12/12 00:04:17;;;;;;;2.45;0.40;;;8.40;99.90;;;;;;5027555;28;20033;-79
2023/12/12 00:06:43;;;;;;;2.80;0.50;;;8.40;99.90;;;;;;5036497;28;20033;-80
2023/12/12 00:09:09;;;;;;;1.58;0.40;;;8.40;99.90;;;;;;5039987;28;20047;-79
2023/12/12 00:11:34;;;;;;;2.30;0.70;;;8.40;99.90;;;;;;5062478;28;20037;-80
2023/12/12 00:14:00;;;;;;;2.90;0.55;;;8.30;99.90;;;;;;5045127;28;20663;-78
2023/12/12 00:16:26;;;;;;;1.92;0.30;;;8.20;99.90;;;;;;5077060;28;20116;-78
2023/12/12 00:18:51;;;;;;;1.67;0.40;;;8.20;99.90;;;;;;5045922;28;20048;-79
2023/12/12 00:21:17;;;;;;;2.92;0.50;;;8.10;99.90;;;;;;5046920;28;20481;-79
2023/12/12 00:23:43;;;;;;;3.58;0.50;;;8.10;99.90;;;;;;5038837;28;20087;-79
2023/12/12 00:26:12;;;;;;;2.47;0.50;;;8.00;99.90;;;;;;5033573;28;20123;-79
2023/12/12 00:28:38;;;;;;;3.05;0.60;;;8.00;99.90;;;;;;5042125;28;20029;-79
2023/12/12 00:31:03;;;;;;;2.25;0.52;;;7.90;99.90;;;;;;5040995;28;20041;-79
2023/12/12 00:33:29;;;;;;;3.13;0.70;;;8.00;99.90;;;;;;5049536;28;20052;-79
2023/12/12 00:35:55;;;;;;;2.88;0.60;;;7.90;99.90;;;;;;5047339;28;20029;-79
2023/12/12 00:38:28;;;;;;;2.25;0.70;;;7.90;99.90;;;;;;5080347;28;20056;-78
2023/12/12 00:40:54;;;;;;;3.15;0.50;;;7.90;99.90;;;;;;5048776;28;20025;-78
2023/12/12 00:43:20;;;;;;;2.85;0.70;;;7.90;99.90;;;;;;5039793;28;20033;-79
2023/12/12 00:45:46;;;;;;;3.05;0.60;;;7.90;99.90;;;;;;5079969;28;20025;-79
2023/12/12 00:48:12;;;;;;;3.65;0.65;;;7.90;99.90;;;;;;5047510;28;20115;-79
2023/12/12 00:50:37;;;;;;;3.53;0.88;;;7.90;99.90;;;;;;5046522;28;20025;-79
2023/12/12 00:53:03;;;;;;;5.55;0.90;;;7.90;99.90;;;;;;5067168;28;20033;-79
2023/12/12 00:55:29;;;;;;;3.45;0.70;;;7.90;99.90;;;;;;5049211;28;20591;-78
2023/12/12 00:57:54;;;;;;;5.10;1.00;;;7.90;99.90;;;;;;5047600;28;20057;-79
2023/12/12 01:00:20;;;;;;;3.80;1.10;;;7.90;99.90;;;;;;5050009;28;20049;-78
2023/12/12 01:02:46;;;;;;;3.65;1.00;;;7.90;99.90;;;;;;5048032;28;20124;-79
2023/12/12 01:05:12;;;;;;;3.50;1.13;;;7.90;99.90;;;;;;5076508;28;20029;-79
2023/12/12 01:07:37;;;;;;;3.20;1.20;;;7.90;99.90;;;;;;5049969;28;20247;-79
2023/12/12 01:10:04;;;;;;;3.35;1.20;;;7.90;99.90;;;;;;5050958;28;20041;-79
2023/12/12 01:12:30;;;;;;;3.38;0.98;;;7.90;99.90;;;;;;5045252;28;20090;-78
2023/12/12 01:14:58;;;;;;;4.05;1.50;;;7.80;99.90;;;;;;5049499;28;20036;-78
2023/12/12 01:17:28;;;;;;;5.40;1.50;;;7.90;99.90;;;;;;5047725;28;20051;-79
2023/12/12 01:19:54;;;;;;;3.97;1.63;;;7.80;99.90;;;;;;5031576;28;20493;-79
2023/12/12 01:22:19;;;;;;;5.35;1.42;;;7.80;99.90;;;;;;5045839;28;20112;-79
2023/12/12 01:24:45;;;;;;;4.07;1.33;;;7.80;99.90;;;;;;5043729;28;20031;-78
2023/12/12 01:27:11;;;;;;;3.00;0.95;;;7.70;99.90;;;;;;5065181;28;20047;-78
2023/12/12 01:29:37;;;;;;;3.38;1.00;;;7.60;99.90;;;;;;5046799;28;20478;-79
2023/12/12 01:32:03;;;;;;;5.03;1.55;;;7.60;99.90;;;;;;5048322;28;20033;-79
2023/12/12 01:34:29;;;;;;;4.10;1.42;;;7.50;99.90;;;;;;5039105;28;20537;-79
2023/12/12 01:36:55;;;;;;;4.40;1.83;;;7.50;99.90;;;;;;5049311;28;20029;-79
2023/12/12 01:39:20;;;;;;;4.35;1.52;;;7.40;99.90;;;;;;5049760;28;20024;-79
2023/12/12 01:41:47;;;;;;;4.40;1.48;;;7.40;99.90;;;;;;5078884;28;20501;-79
2023/12/12 01:44:13;;;;;;;6.90;2.58;;;7.30;99.90;;;;;;5075541;28;20052;-79
2023/12/12 01:46:38;;;;;;;4.55;2.08;;;7.20;99.90;;;;;;5045288;28;20056;-80
2023/12/12 01:49:05;;;;;;;6.15;2.17;;;7.10;99.90;;;;;;5077414;28;20052;-79
2023/12/12 01:51:31;;;;;;;5.80;2.30;;;7.10;99.90;;;;;;5035618;28;20037;-79
2023/12/12 01:54:00;;;;;;;4.95;1.48;;;7.10;99.90;;;;;;5049592;28;20036;-79
2023/12/12 01:56:26;;;;;;;6.88;1.80;;;7.10;99.90;;;;;;5075706;28;20031;-79
2023/12/12 01:58:53;;;;;;;6.57;1.90;;;7.00;99.90;;;;;;5064684;28;20435;-79
2023/12/12 02:01:21;;;;;;;3.28;1.80;;;6.90;99.90;;;;;;5047564;28;20049;-79
2023/12/12 02:03:48;;;;;;;4.72;2.05;;;6.80;99.90;;;;;;5047520;28;20051;-79
2023/12/12 02:06:21;;;;;;;4.97;1.70;;;6.80;99.90;;;;;;5064631;28;20111;-79
2023/12/12 02:08:51;;;;;;;4.97;2.38;;;6.70;99.90;;;;;;5045341;28;20070;-79
2023/12/12 02:11:18;;;;;;;4.40;2.25;;;6.60;99.90;;;;;;5034287;28;20447;-79
2023/12/12 02:13:44;;;;;;;4.32;2.03;;;6.50;99.90;;;;;;5076121;28;20034;-79
2023/12/12 02:16:10;;;;;;;3.67;2.13;;;6.50;99.90;;;;;;5048072;28;20079;-79
2023/12/12 02:18:36;;;;;;;4.72;2.10;;;6.40;99.90;;;;;;5061207;28;20032;-79
2023/12/12 02:21:02;;;;;;;5.95;2.53;;;6.40;99.90;;;;;;5045618;28;20043;-79
2023/12/12 02:23:29;;;;;;;4.32;2.25;;;6.30;99.90;;;;;;5038440;28;20029;-79
2023/12/12 02:25:55;;;;;;;7.07;2.22;;;6.30;99.90;;;;;;5039624;28;20021;-79
2023/12/12 02:28:21;;;;;;;7.07;2.17;;;6.30;99.90;;;;;;5064367;28;20031;-79
2023/12/12 02:30:47;;;;;;;5.18;2.25;;;6.30;99.90;;;;;;5049470;28;20554;-79
2023/12/12 02:33:12;;;;;;;4.97;2.20;;;6.20;99.90;;;;;;5037550;28;20025;-79
2023/12/12 02:35:38;;;;;;;4.53;1.83;;;6.20;99.90;;;;;;5056776;28;20025;-79
2023/12/12 02:38:04;;;;;;;7.18;2.38;;;6.10;99.90;;;;;;5048059;28;20393;-79
2023/12/12 02:40:30;;;;;;;4.07;2.40;;;6.10;99.90;;;;;;5076255;28;20025;-79
2023/12/12 02:42:55;;;;;;;7.28;2.83;;;6.10;99.90;;;;;;5046661;28;20029;-80
2023/12/12 02:45:21;;;;;;;5.45;2.58;;;6.00;99.90;;;;;;5047746;28;20539;-80
2023/12/12 02:47:47;;;;;;;5.60;2.80;;;6.00;99.90;;;;;;5044512;28;20385;-80
2023/12/12 02:50:13;;;;;;;5.85;2.70;;;5.90;99.90;;;;;;5044170;28;20033;-78
2023/12/12 02:52:38;;;;;;;3.60;1.98;;;5.80;99.90;;;;;;5033788;28;20044;-80
2023/12/12 02:55:04;;;;;;;4.75;2.42;;;5.90;99.90;;;;;;5042445;28;20435;-80
2023/12/12 02:57:30;;;;;;;3.50;1.90;;;5.80;99.90;;;;;;5038800;28;20028;-79
2023/12/12 02:59:55;;;;;;;3.58;2.28;;;5.80;99.90;;;;;;5046561;28;20182;-81
2023/12/12 03:02:21;;;;;;;6.63;2.17;;;5.80;99.90;;;;;;5046689;28;20041;-80
2023/12/12 03:04:47;;;;;;;7.25;2.33;;;5.80;99.90;;;;;;5038246;28;20474;-81
2023/12/12 03:07:13;;;;;;;4.82;2.15;;;5.80;99.90;;;;;;5045764;28;20024;-79
2023/12/12 03:09:39;;;;;;;7.18;2.22;;;5.90;99.90;;;;;;5062126;28;20025;-79
2023/12/12 03:12:05;;;;;;;5.93;2.30;;;5.80;99.90;;;;;;5048490;28;20041;-80
2023/12/12 03:14:31;;;;;;;5.13;2.20;;;5.80;99.90;;;;;;5042252;28;20416;-80
2023/12/12 03:16:57;;;;;;;4.63;1.80;;;5.80;99.90;;;;;;5046447;28;20033;-82
2023/12/12 03:19:24;;;;;;;5.05;2.13;;;5.70;99.90;;;;;;5042653;28;20028;-79
2023/12/12 03:21:50;;;;;;;6.13;2.25;;;5.70;99.90;;;;;;5036539;28;20112;-79
2023/12/12 03:24:17;;;;;;;7.28;1.95;;;5.60;99.90;;;;;;5022902;28;20032;-80
2023/12/12 03:26:46;;;;;;;5.07;2.13;;;5.70;99.90;;;;;;5040108;28;20079;-81
2023/12/12 03:29:12;;;;;;;3.53;1.45;;;5.60;99.90;;;;;;5047717;28;20027;-81
2023/12/12 03:31:41;;;;;;;3.72;1.70;;;5.60;99.90;;;;;;5075338;28;20509;-79
2023/12/12 03:34:07;;;;;;;5.13;1.92;;;5.60;99.90;;;;;;5063721;28;20069;-79
2023/12/12 03:36:34;;;;;;;3.72;1.73;;;5.50;99.90;;;;;;5045723;28;20029;-80
2023/12/12 03:39:00;;;;;;;4.88;1.15;;;5.60;99.90;;;;;;5048511;28;20036;-80
2023/12/12 03:41:28;;;;;;;5.50;1.42;;;5.50;99.90;;;;;;5046744;28;20481;-80
2023/12/12 03:43:54;;;;;;;2.85;1.10;;;5.50;99.90;;;;;;5026102;28;20440;-79
2023/12/12 03:46:20;;;;;;;5.18;1.65;;;5.50;99.90;;;;;;5043107;28;20029;-79
2023/12/12 03:48:46;;;;;;;4.72;1.50;;;5.50;99.90;;;;;;5040486;28;20021;-80
2023/12/12 03:51:12;;;;;;;5.88;1.27;;;5.50;99.90;;;;;;5034948;28;20093;-82
2023/12/12 03:53:39;;;;;;;4.93;1.40;;;5.50;99.90;;;;;;5075291;28;20120;-80
2023/12/12 03:56:05;;;;;;;5.97;1.40;;;5.50;99.90;;;;;;5046669;28;20390;-79
2023/12/12 03:58:31;;;;;;;3.63;1.25;;;5.50;99.90;;;;;;5047231;28;20030;-80
2023/12/12 04:00:57;;;;;;;4.47;1.30;;;5.50;99.90;;;;;;5076896;28;20038;-81
2023/12/12 04:03:22;;;;;;;5.43;1.90;;;5.50;99.90;;;;;;5041670;28;20056;-79
2023/12/12 04:05:48;;;;;;;5.00;1.33;;;5.50;99.90;;;;;;5040359;28;20029;-80
2023/12/12 04:08:14;;;;;;;4.10;1.48;;;5.40;99.90;;;;;;5040701;28;20017;-82
2023/12/12 04:10:39;;;;;;;4.97;1.42;;;5.40;99.90;;;;;;5039587;28;20025;-79
2023/12/12 04:13:05;;;;;;;3.78;0.95;;;5.40;99.90;;;;;;5067219;28;20037;-83
2023/12/12 04:15:31;;;;;;;4.32;0.73;;;5.30;99.90;;;;;;5050940;28;20025;-79
2023/12/12 04:17:56;;;;;;;4.18;1.10;;;5.30;99.90;;;;;;5036656;28;20037;-82
2023/12/12 04:20:22;;;;;;;2.25;1.02;;;5.30;99.90;;;;;;5050182;28;20029;-79
2023/12/12 04:22:48;;;;;;;3.83;1.05;;;5.30;99.90;;;;;;5051234;28;20037;-80
2023/12/12 04:25:14;;;;;;;3.17;1.00;;;5.20;99.90;;;;;;5041314;28;20048;-82
2023/12/12 04:27:39;;;;;;;3.97;1.20;;;5.10;99.90;;;;;;5052067;28;20417;-80
2023/12/12 04:30:06;;;;;;;3.35;0.95;;;5.10;99.90;;;;;;5050279;28;20028;-79
2023/12/12 04:32:32;;;;;;;2.75;0.90;;;5.20;99.90;;;;;;5039490;28;20040;-80
2023/12/12 04:34:59;;;;;;;3.53;0.82;;;5.10;99.90;;;;;;5046731;28;20032;-80
2023/12/12 04:37:25;;;;;;;4.57;1.00;;;5.20;99.90;;;;;;5044925;28;20033;-82
2023/12/12 04:39:50;;;;;;;5.68;1.15;;;5.20;99.90;;;;;;5040461;28;20035;-80
2023/12/12 04:42:16;;;;;;;4.72;0.90;;;5.30;99.90;;;;;;5050979;28;20028;-79
2023/12/12 04:44:42;;;;;;;3.65;0.80;;;5.30;99.90;;;;;;5047558;28;20397;-80
2023/12/12 04:47:08;;;;;;;6.35;0.95;;;5.40;99.90;;;;;;5045884;28;20017;-79
2023/12/12 04:49:34;;;;;;;3.05;0.80;;;5.50;99.90;;;;;;5077342;28;20037;-80
2023/12/12 04:52:01;;;;;;;4.03;0.80;;;5.50;99.90;;;;;;5052040;28;20516;-80
2023/12/12 04:54:27;;;;;;;3.70;0.90;;;5.50;99.90;;;;;;5038218;28;20083;-81
2023/12/12 04:56:52;;;;;;;3.88;0.73;;;5.60;99.90;;;;;;5048530;28;20141;-83
2023/12/12 04:59:18;;;;;;;2.97;0.70;;;5.70;99.90;;;;;;5066496;28;20592;-80
2023/12/12 05:01:44;;;;;;;4.82;1.00;;;5.60;99.90;;;;;;5050476;28;20041;-79
2023/12/12 05:04:10;;;;;;;4.25;0.80;;;5.50;99.90;;;;;;5047857;28;20381;-80
2023/12/12 05:06:36;;;;;;;4.28;0.60;;;5.40;99.90;;;;;;5046328;28;20032;-81
2023/12/12 05:09:03;;;;;;;3.67;1.00;;;5.50;99.90;;;;;;5050726;28;20035;-80
2023/12/12 05:11:29;;;;;;;3.92;0.70;;;5.30;99.90;;;;;;5046994;28;20404;-81
2023/12/12 05:13:56;;;;;;;4.43;0.75;;;5.40;99.90;;;;;;5044842;28;20037;-80
2023/12/12 05:16:22;;;;;;;4.07;0.80;;;5.40;99.90;;;;;;5049184;28;20029;-81
2023/12/12 05:18:48;;;;;;;3.50;0.70;;;5.40;99.90;;;;;;5024190;28;20029;-80
2023/12/12 05:21:14;;;;;;;4.93;0.80;;;5.50;99.90;;;;;;5080344;28;20048;-80
2023/12/12 05:23:41;;;;;;;3.03;0.55;;;5.50;99.90;;;;;;5045593;28;20044;-80
2023/12/12 05:26:07;;;;;;;4.35;0.50;;;5.40;99.90;;;;;;5050942;28;20049;-80
2023/12/12 05:28:33;;;;;;;4.93;0.80;;;5.40;99.90;;;;;;5046807;28;20445;-79
2023/12/12 05:30:59;;;;;;;3.03;0.65;;;5.40;99.90;;;;;;5074525;28;20052;-81
2023/12/12 05:33:24;;;;;;;4.80;0.77;;;5.40;99.90;;;;;;5041660;28;20025;-80
2023/12/12 05:35:50;;;;;;;4.35;0.80;;;5.30;99.90;;;;;;5048156;28;20489;-80
2023/12/12 05:38:16;;;;;;;5.50;0.60;;;5.30;99.90;;;;;;5034299;28;20028;-84
2023/12/12 05:40:42;;;;;;;2.97;0.88;;;5.30;99.90;;;;;;5046769;28;20501;-79
2023/12/12 05:43:09;;;;;;;4.22;0.70;;;5.30;99.90;;;;;;5044400;28;20055;-80
2023/12/12 05:45:35;;;;;;;5.40;0.63;;;5.30;99.90;;;;;;5048137;28;20040;-80
2023/12/12 05:48:03;;;;;;;5.13;0.93;;;5.30;99.90;;;;;;5049048;28;20469;-80
2023/12/12 05:50:29;;;;;;;3.58;0.60;;;5.20;99.90;;;;;;5034810;28;20025;-80
2023/12/12 05:52:55;;;;;;;3.13;0.63;;;5.20;99.90;;;;;;5045477;28;20032;-79
2023/12/12 05:55:21;;;;;;;3.58;0.68;;;5.30;99.90;;;;;;5043632;28;20018;-79
2023/12/12 05:57:48;;;;;;;3.85;0.70;;;5.30;99.90;;;;;;5049323;28;20500;-80
2023/12/12 06:00:14;;;;;;;3.65;0.60;;;5.40;99.90;;;;;;5043533;28;20127;-80
2023/12/12 06:02:40;;;;;;;5.70;0.90;;;5.30;99.90;;;;;;5039442;28;20029;-79
2023/12/12 06:05:07;;;;;;;3.78;0.60;;;5.30;99.90;;;;;;5046831;28;20075;-79
2023/12/12 06:07:34;;;;;;;3.22;0.70;;;5.10;99.90;;;;;;5046961;28;20032;-80
2023/12/12 06:10:00;;;;;;;4.00;0.70;;;5.00;99.90;;;;;;5047964;28;20029;-81
2023/12/12 06:12:25;;;;;;;5.40;0.93;;;5.00;99.90;;;;;;5046026;28;20040;-80
2023/12/12 06:14:51;;;;;;;4.45;0.93;;;5.00;99.90;;;;;;5049357;28;20025;-80
2023/12/12 06:17:16;;;;;;;3.90;0.80;;;5.00;99.90;;;;;;5037516;28;20064;-80
2023/12/12 06:19:42;;;;;;;4.20;0.60;;;5.00;99.90;;;;;;5042361;28;20037;-80
2023/12/12 06:22:08;;;;;;;3.13;0.80;;;5.10;99.90;;;;;;5049198;28;20033;-81
2023/12/12 06:24:34;;;;;;;2.63;0.70;;;5.10;99.90;;;;;;5038646;28;20024;-82
2023/12/12 06:27:00;;;;;;;7.97;1.00;;;5.00;99.90;;;;;;5046357;28;20420;-81
2023/12/12 06:29:25;;;;;;;8.38;0.70;;;5.20;99.90;;;;;;5046367;28;20025;-80
2023/12/12 06:31:51;;;;;;;5.80;0.80;;;5.20;99.90;;;;;;5048685;28;20033;-82
2023/12/12 06:34:17;;;;;;;3.45;0.70;;;5.40;99.90;;;;;;5046922;28;20501;-79
2023/12/12 06:36:42;;;;;;;6.10;1.02;;;5.40;99.90;;;;;;5046967;28;20500;-80
2023/12/12 06:39:09;;;;;;;5.63;1.00;;;5.40;99.90;;;;;;5044780;28;20025;-80
2023/12/12 06:41:36;;;;;;;5.47;0.90;;;5.40;99.90;;;;;;5062903;28;20064;-80
2023/12/12 06:44:02;;;;;;;4.28;0.60;;;5.50;99.90;;;;;;5046291;28;20052;-80
2023/12/12 06:46:27;;;;;;;4.07;0.77;;;5.60;99.90;;;;;;5043854;28;20061;-80
2023/12/12 06:48:53;;;;;;;5.28;0.63;;;5.70;99.90;;;;;;5046275;28;20049;-79
2023/12/12 06:51:19;;;;;;;2.50;0.70;;;5.70;99.90;;;;;;5045385;28;20428;-80
2023/12/12 06:53:44;;;;;;;4.63;0.88;;;5.80;99.90;;;;;;5047450;28;20029;-82
2023/12/12 06:56:10;;;;;;;6.07;0.77;;;5.90;99.90;;;;;;5078430;28;20347;-79
2023/12/12 06:58:36;;;;;;;3.67;0.70;;;5.90;99.90;;;;;;5047537;28;20020;-80
2023/12/12 07:01:03;;;;;;;7.15;1.15;;;5.90;99.90;;;;;;5042124;28;20037;-81
2023/12/12 07:03:29;;;;;;;4.18;0.63;;;6.00;99.90;;;;;;5043786;28;20036;-80
2023/12/12 07:05:54;;;;;;;4.15;0.60;;;6.10;99.90;;;;;;5043160;28;20373;-81
2023/12/12 07:08:20;;;;;;;3.30;0.80;;;6.10;99.90;;;;;;5040394;28;20163;-79
2023/12/12 07:10:47;;;;;;;3.97;0.82;;;6.10;99.90;;;;;;5031233;28;20029;-81
2023/12/12 07:13:13;;;;;;;5.32;0.80;;;6.20;99.90;;;;;;5043829;28;20029;-80
2023/12/12 07:15:39;;;;;;;4.50;0.90;;;6.20;99.90;;;;;;5046466;28;20504;-80
2023/12/12 07:18:10;;;;;;;3.80;0.73;;;6.30;99.90;;;;;;5077736;28;20033;-80
2023/12/12 07:20:39;;;;;;;7.72;0.90;;;6.30;99.90;;;;;;5079549;28;20056;-79
2023/12/12 07:23:05;;;;;;;5.88;1.25;;;6.30;99.90;;;;;;5043890;28;20025;-80
2023/12/12 07:25:31;;;;;;;3.42;0.60;;;6.50;99.90;;;;;;5045460;28;20048;-80
2023/12/12 07:27:57;;;;;;;5.63;0.93;;;6.50;99.90;;;;;;5044510;28;20024;-81
2023/12/12 07:30:22;;;;;;;5.93;0.82;;;6.50;99.90;;;;;;5004115;28;21005;-80
2023/12/12 07:32:48;;;;;;;6.95;1.25;;;6.60;99.90;;;;;;5023712;28;20064;-79
2023/12/12 07:35:14;;;;;;;3.60;0.70;;;6.80;99.90;;;;;;5042337;28;20028;-78
2023/12/12 07:37:39;;;;;;;5.78;1.05;;;6.80;99.90;;;;;;5033279;28;20037;-78
2023/12/12 07:40:06;;;;;;;5.97;1.02;;;6.90;99.90;;;;;;5040386;28;20041;-80
2023/12/12 07:42:32;;;;;;;5.13;0.70;;;7.00;99.90;;;;;;5042629;28;20037;-79
2023/12/12 07:44:57;;;;;;;4.30;0.73;;;7.10;99.90;;;;;;5017457;28;20029;-79
2023/12/12 07:47:24;;;;;;;6.63;1.20;;;7.30;99.90;;;;;;5033556;28;21098;-80
2023/12/12 07:49:49;;;;;;;10.13;1.77;;;7.20;99.90;;;;;;5065276;28;20041;-79
2023/12/12 07:52:15;;;;;;;7.07;1.83;;;7.40;99.90;;;;;;5033620;28;20044;-78
2023/12/12 07:54:42;;;;;;;6.63;1.15;;;7.50;99.90;;;;;;5049594;28;20041;-79
2023/12/12 07:57:09;;;;;;;12.68;1.92;;;7.40;99.90;;;;;;5048814;28;20035;-79
2023/12/12 07:59:34;;;;;;;9.07;1.38;;;7.60;99.90;;;;;;5031846;28;20037;-80
2023/12/12 08:02:00;;;;;;;5.95;1.25;;;7.50;99.90;;;;;;5047935;28;20044;-79
2023/12/12 08:04:26;;;;;;;8.02;1.02;;;7.70;99.90;;;;;;5049404;28;20036;-79
2023/12/12 08:06:52;;;;;;;6.75;1.13;;;7.60;99.90;;;;;;5048956;28;20036;-80
2023/12/12 08:09:17;;;;;;;2.25;0.70;;;7.70;99.90;;;;;;5032955;28;20051;-80
2023/12/12 08:11:43;;;;;;;4.85;1.30;;;7.80;99.90;;;;;;5048072;28;20506;-79
2023/12/12 08:14:09;;;;;;;6.40;0.70;;;7.90;99.90;;;;;;5033284;28;20028;-79
2023/12/12 08:16:34;;;;;;;6.20;0.60;;;7.90;99.90;;;;;;5031403;28;20033;-79
2023/12/12 08:19:00;;;;;;;7.47;0.90;;;8.00;99.90;;;;;;5039788;28;20489;-79
2023/12/12 08:21:26;;;;;;;7.88;0.88;;;7.90;99.90;;;;;;5039731;28;20025;-79
2023/12/12 08:23:54;;;;;;;3.90;0.68;;;8.00;99.90;;;;;;5048852;28;20048;-79
2023/12/12 08:26:22;;;;;;;4.85;0.50;;;7.90;99.90;;;;;;5031803;28;20400;-80
2023/12/12 08:28:48;;;;;;;7.50;0.70;;;8.00;99.90;;;;;;5024461;28;20047;-79
2023/12/12 08:31:14;;;;;;;4.03;0.60;;;8.00;99.90;;;;;;5053421;28;20454;-79
2023/12/12 08:33:40;;;;;;;7.03;0.85;;;8.10;99.90;;;;;;5041161;28;20633;-80
2023/12/12 08:36:06;;;;;;;6.57;0.68;;;8.20;99.90;;;;;;5034100;28;20047;-80
2023/12/12 08:38:32;;;;;;;8.30;1.33;;;8.10;99.90;;;;;;5031758;28;20921;-79
2023/12/12 08:40:58;;;;;;;5.95;1.17;;;8.10;99.90;;;;;;5027349;28;20041;-80
2023/12/12 08:43:24;;;;;;;7.03;0.63;;;8.10;99.90;;;;;;5048481;28;20037;-80
2023/12/12 08:45:52;;;;;;;5.60;0.88;;;8.10;99.90;;;;;;5033165;28;20106;-80
2023/12/12 08:48:18;;;;;;;7.88;0.73;;;8.20;99.90;;;;;;5033117;28;20029;-79
2023/12/12 08:50:44;;;;;;;6.60;0.80;;;8.30;99.90;;;;;;5033280;28;20087;-79
2023/12/12 08:53:10;;;;;;;5.35;1.02;;;8.30;99.90;;;;;;5037556;28;20040;-78
2023/12/12 08:55:36;;;;;;;4.18;0.70;;;8.40;99.90;;;;;;5020485;28;20035;-78
2023/12/12 08:58:04;;;;;;;4.22;0.80;;;8.30;99.90;;;;;;5028659;28;20064;-80
2023/12/12 09:00:30;;;;;;;4.43;0.70;;;8.40;99.90;;;;;;5027034;28;20665;-78
2023/12/12 09:02:56;;;;;;;7.82;0.70;;;8.50;99.90;;;;;;5037261;28;20181;-79
2023/12/12 09:05:21;;;;;;;3.85;0.55;;;8.50;99.90;;;;;;5069194;28;20033;-80
2023/12/12 09:07:47;;;;;;;7.75;0.80;;;8.60;99.90;;;;;;5052368;28;20545;-79
2023/12/12 09:10:13;;;;;;;6.47;0.75;;;8.60;99.90;;;;;;5051479;28;20472;-80
2023/12/12 09:12:39;;;;;;;7.88;0.88;;;8.70;99.90;;;;;;5044763;28;20052;-82
2023/12/12 09:15:05;;;;;;;5.93;0.85;;;8.70;99.90;;;;;;5052470;28;20029;-80
2023/12/12 09:17:31;;;;;;;8.48;0.80;;;8.70;99.90;;;;;;5051652;28;20025;-80
2023/12/12 09:19:57;;;;;;;5.88;0.60;;;8.80;99.90;;;;;;5025796;28;20501;-81
2023/12/12 09:22:23;;;;;;;5.85;0.65;;;8.80;99.90;;;;;;5034530;28;20029;-80
2023/12/12 09:24:48;;;;;;;3.67;0.50;;;8.90;99.90;;;;;;5027680;28;20043;-79
2023/12/12 09:27:15;;;;;;;4.75;0.50;;;9.00;99.90;;;;;;5036060;28;20033;-81
2023/12/12 09:29:42;;;;;;;2.55;0.50;;;9.00;99.90;;;;;;5027120;28;20032;-80
2023/12/12 09:32:07;;;;;;;5.38;0.70;;;9.00;99.90;;;;;;5041391;28;20057;-81
2023/12/12 09:34:33;;;;;;;4.60;0.80;;;9.00;99.90;;;;;;5036963;28;20029;-81
2023/12/12 09:36:58;;;;;;;3.05;0.50;;;9.00;99.90;;;;;;5036211;28;20079;-84
2023/12/12 09:39:24;;;;;;;7.20;0.77;;;8.90;99.90;;;;;;5027564;28;20047;-80
2023/12/12 09:41:52;;;;;;;7.20;0.88;;;8.90;99.90;;;;;;5051207;28;20130;-81
2023/12/12 09:44:19;;;;;;;5.75;0.55;;;8.90;99.90;;;;;;5036011;28;20056;-80
2023/12/12 09:46:46;;;;;;;5.40;0.60;;;8.90;99.90;;;;;;5036238;28;20092;-81
2023/12/12 09:49:12;;;;;;;4.75;0.93;;;9.00;99.90;;;;;;5036904;28;20040;-82
2023/12/12 09:51:41;;;;;;;8.95;1.00;;;9.10;99.90;;;;;;5043863;28;20045;-82
2023/12/12 09:54:09;;;;;;;5.43;0.60;;;9.20;99.90;;;;;;5043437;28;20135;-81
2023/12/12 09:56:37;;;;;;;9.90;0.80;;;9.20;99.90;;;;;;5037342;28;20087;-85
2023/12/12 09:59:03;;;;;;;4.43;0.70;;;9.30;99.90;;;;;;5036652;28;20025;-82
2023/12/12 10:01:34;;;;;;;6.72;0.60;;;9.40;99.90;;;;;;5051093;28;20551;-81
2023/12/12 10:04:06;;;;;;;3.47;0.50;;;9.40;99.90;;;;;;5052089;28;20037;-81
2023/12/12 10:06:42;;;;;;;4.75;0.50;;;9.40;99.90;;;;;;5052440;28;20037;-83
2023/12/12 10:09:10;;;;;;;5.15;0.50;;;9.50;99.90;;;;;;5036787;28;20056;-82
2023/12/12 10:11:36;;;;;;;4.85;0.70;;;9.50;99.90;;;;;;5035740;28;20088;-82
2023/12/12 10:14:02;;;;;;;6.28;0.90;;;9.50;99.90;;;;;;5043584;28;20020;-83
2023/12/12 10:16:30;;;;;;;8.00;0.75;;;9.40;99.90;;;;;;5044624;28;20443;-82
2023/12/12 10:18:58;;;;;;;7.25;0.70;;;9.50;99.90;;;;;;5048745;28;20112;-81
2023/12/12 10:21:26;;;;;;;5.80;0.60;;;9.50;99.90;;;;;;5063485;28;20071;-81
2023/12/12 10:23:53;;;;;;;3.60;0.40;;;9.60;99.90;;;;;;5049234;28;20029;-81
2023/12/12 10:26:31;;;;;;;5.35;0.65;;;9.50;99.90;;;;;;5065481;28;20029;-82
2023/12/12 10:28:58;;;;;;;5.07;0.50;;;9.60;99.90;;;;;;5043621;28;20041;-81
2023/12/12 10:31:23;;;;;;;4.80;0.80;;;9.60;99.90;;;;;;5033073;28;20060;-82
2023/12/12 10:33:50;;;;;;;6.32;0.80;;;9.70;99.90;;;;;;5050763;28;20029;-81
2023/12/12 10:36:16;;;;;;;5.30;0.60;;;9.70;99.90;;;;;;5050780;28;20893;-80
2023/12/12 10:38:42;;;;;;;6.40;0.80;;;9.70;99.90;;;;;;5042417;28;20032;-82
2023/12/12 10:41:15;;;;;;;4.07;0.60;;;9.70;99.90;;;;;;5035313;28;20033;-82
2023/12/12 10:43:43;;;;;;;4.47;0.70;;;9.80;99.90;;;;;;5047514;28;20117;-81
2023/12/12 10:46:11;;;;;;;4.88;0.60;;;9.80;99.90;;;;;;5049172;28;20244;-82
2023/12/12 10:48:52;;;;;;;4.18;0.55;;;9.80;99.90;;;;;;5042459;28;20102;-82
2023/12/12 10:51:18;;;;;;;5.97;0.65;;;9.80;99.90;;;;;;5059347;28;20045;-82
2023/12/12 10:53:51;;;;;;;5.60;0.68;;;9.90;99.90;;;;;;5033404;28;20033;-83
2023/12/12 10:56:17;;;;;;;4.97;0.50;;;9.90;99.90;;;;;;5067247;28;20033;-81
2023/12/12 10:58:43;;;;;;;4.88;0.40;;;9.90;99.90;;;;;;5042485;28;20036;-82
2023/12/12 11:01:12;;;;;;;2.53;0.95;;;9.90;99.90;;;;;;5025379;28;20814;-81
2023/12/12 11:03:38;;;;;;;4.78;0.60;;;10.00;99.90;;;;;;5040945;28;20074;-82
2023/12/12 11:06:05;;;;;;;4.97;0.43;;;10.10;99.90;;;;;;5035493;28;20463;-82
2023/12/12 11:08:31;;;;;;;2.83;0.77;;;10.10;99.90;;;;;;5033937;28;20051;-82
2023/12/12 11:10:59;;;;;;;4.50;0.40;;;10.10;99.90;;;;;;5033925;28;20477;-82
2023/12/12 11:13:33;;;;;;;4.22;0.50;;;10.20;99.90;;;;;;5040652;28;20036;-82
2023/12/12 11:16:01;;;;;;;8.82;0.50;;;10.20;99.90;;;;;;5034272;28;20080;-83
2023/12/12 11:18:26;;;;;;;4.07;0.75;;;10.30;99.90;;;;;;5067507;28;20102;-83
2023/12/12 11:20:52;;;;;;;2.65;0.50;;;10.30;99.90;;;;;;5025409;28;20497;-83
2023/12/12 11:23:52;;;;;;;2.63;0.82;;;10.30;99.90;;;;;;5033755;28;20143;-83
2023/12/12 11:26:19;;;;;;;2.95;0.40;;;10.30;99.90;;;;;;5066997;28;20064;-83
2023/12/12 11:28:45;;;;;;;6.10;0.50;;;10.30;99.90;;;;;;5049638;28;20091;-82
2023/12/12 11:31:19;;;;;;;4.85;0.52;;;10.20;99.90;;;;;;5015383;28;20053;-84
2023/12/12 11:34:08;;;;;;;4.57;0.45;;;10.20;99.90;;;;;;5041179;28;20814;-82
2023/12/12 11:36:59;;;;;;;4.78;0.50;;;10.20;99.90;;;;;;5041773;28;20033;-82
2023/12/12 11:39:52;;;;;;;5.18;0.50;;;10.40;99.90;;;;;;5016845;28;20034;-82
2023/12/12 11:42:28;;;;;;;7.53;0.60;;;10.60;99.90;;;;;;5065732;28;20025;-81
2023/12/12 11:45:00;;;;;;;7.68;0.50;;;10.80;99.90;;;;;;5032390;28;20429;-82
2023/12/12 11:47:28;;;;;;;9.10;0.60;;;10.90;99.90;;;;;;5032667;28;20460;-84
2023/12/12 11:50:12;;;;;;;5.60;0.93;;;10.70;99.90;;;;;;5031918;28;20040;-81
2023/12/12 11:52:38;;;;;;;3.05;0.40;;;10.70;99.90;;;;;;5039981;28;20156;-82
2023/12/12 11:55:11;;;;;;;6.38;0.40;;;10.70;99.90;;;;;;5058673;28;20057;-81
2023/12/12 11:57:37;;;;;;;5.40;0.38;;;10.50;99.90;;;;;;5018137;28;20432;-83
2023/12/12 12:00:03;;;;;;;5.97;0.73;;;10.40;99.90;;;;;;5033708;28;20052;-83
2023/12/12 12:02:31;;;;;;;3.58;0.40;;;10.30;99.90;;;;;;5032100;28;20515;-82
2023/12/12 12:04:58;;;;;;;1.75;0.30;;;10.30;99.90;;;;;;5042615;28;20036;-82
2023/12/12 12:07:24;;;;;;;3.00;0.30;;;10.40;99.90;;;;;;5050921;28;20056;-83
2023/12/12 12:09:52;;;;;;;4.25;0.40;;;10.30;99.90;;;;;;5050989;28;20052;-82
2023/12/12 12:12:18;;;;;;;3.15;0.40;;;10.40;99.90;;;;;;5049110;28;20047;-84
2023/12/12 12:14:49;;;;;;;4.88;0.35;;;10.40;99.90;;;;;;5033750;28;20029;-83
2023/12/12 12:17:15;;;;;;;3.83;0.40;;;10.40;99.90;;;;;;5022116;28;20040;-83
2023/12/12 12:19:41;;;;;;;2.35;0.40;;;10.50;99.90;;;;;;5039833;28;20033;-83
2023/12/12 12:22:08;;;;;;;4.55;0.55;;;10.50;99.90;;;;;;5031696;28;21160;-84
2023/12/12 12:24:41;;;;;;;6.50;1.20;;;10.50;99.90;;;;;;5011763;28;20083;-83
2023/12/12 12:27:07;;;;;;;3.55;0.50;;;10.60;99.90;;;;;;5046906;28;20107;-83
2023/12/12 12:29:33;;;;;;;4.13;0.65;;;10.80;99.90;;;;;;5065542;28;20021;-82
2023/12/12 12:32:16;;;;;;;6.43;0.40;;;11.00;99.90;;;;;;5065317;28;20056;-84
2023/12/12 12:34:42;;;;;;;3.05;0.40;;;11.30;99.90;;;;;;5045348;28;20048;-84
2023/12/12 12:37:29;;;;;;;6.95;0.40;;;11.30;99.90;;;;;;5065162;28;20488;-83
2023/12/12 12:39:56;;;;;;;4.07;0.40;;;11.30;99.90;;;;;;5065287;28;20468;-84
2023/12/12 12:42:43;;;;;;;2.35;0.40;;;11.30;99.90;;;;;;5082151;28;20364;-84
2023/12/12 12:45:09;;;;;;;3.10;0.30;;;11.40;99.90;;;;;;5009212;28;20333;-84
2023/12/12 12:47:35;;;;;;;6.30;0.50;;;11.50;99.90;;;;;;5027377;28;20355;-84
2023/12/12 12:50:01;;;;;;;2.22;0.30;;;11.40;99.90;;;;;;5060903;28;20029;-84
2023/12/12 12:52:27;;;;;;;2.20;0.30;;;11.30;99.90;;;;;;5026630;28;20048;-83
2023/12/12 12:54:53;;;;;;;2.60;0.30;;;11.20;99.90;;;;;;5070075;28;20029;-84